Etusivu
METAR-TAF:

METAR-TAF

Lentoasemat :

Puerto Francisco de Orellana, Ecuador

Leveyspiiri: 00-27-46S, Pituuspiiri: 076-59-12W, korkeus merenpinnasta: 254 m

Tämänhetkinen sää

Tämä raportti tehtiin 36 minuuttia sitten, kello 13.00 UTC
Tuuli 2 kn lounaasta
Lämpötila 23°C
Kosteus 100%
Ilmanpaine 1016 hPa
Näkyvyys: 6000 m
Hajanaisia pilviä 1600 ft:n korkeudessa
Pilvistä 9000 ft:n korkeudessa
heikkoa sadetta

METAR: SECO 021300Z 23002KT 6000 -RA SCT016 OVC090 23/23 Q1016 RMK A3002

Aika: 08:36 (13:36 UTC)


TAF: puuttuu

Säähavainnot ja -ennusteet yli 4000 lentoasemalta (METAR- ja TAF-raportit).

Käytössä olevat sääasemat on merkitty karttaan keltaisilla ja punaisilla pisteillä.

Aseta hiiri pisteen päälle nähdäksesi sääaseman nimen.

Klikkaa sitten nähdäksesi säähavainnot ja -ennusteet.

Kartan vaihtaminen: klikkaa mustalla rastilla varustettuja vihreitä pisteitä, niin voit zoomata sisään; viivalla varustettua vihreää pistettä, niin voit zoomata ulos tai vihreitä nuolia, niin pääset viereisille kartoille.


METAR-TAF: